.
WxDataArchive / Data Records for 2013-09-14
2013-09-13 September 2013 2013-09-15

Data Records for Saturday, 14 September 2013

Time	Temp	Chill	HIndex	Humid	Dewpt	 Wind 	HiWind	WindDir	Rain 	Barom 
-----	----	-----	------	-----	-----	------	------	-------	-----	----- 
00:00	48.0	48.0	48.0	79	41.8	0	0	---	0.00	30.124 
00:05	47.9	47.9	47.9	79	41.7	0	0	---	0.00	30.124 
00:10	47.9	47.9	47.9	80	42.0	0	0	---	0.00	30.124 
00:15	47.7	47.7	47.7	80	41.8	0	0	---	0.00	30.124 
00:20	47.7	47.7	47.7	80	41.8	0	0	---	0.00	30.124 
00:25	47.6	47.6	47.6	81	42.1	0	0	---	0.00	30.124 
00:30	47.4	47.4	47.4	81	41.9	0	0	---	0.00	30.126 
00:35	47.3	47.3	47.3	81	41.8	0	0	---	0.00	30.126 
00:40	47.1	47.1	47.1	81	41.6	0	0	---	0.00	30.126 
00:45	47.0	47.0	47.0	81	41.5	0	0	---	0.00	30.127 
00:50	46.8	46.8	46.8	82	41.6	0	0	---	0.00	30.127 
00:55	46.7	46.7	46.7	82	41.5	0	0	---	0.00	30.127 
01:00	46.5	46.5	46.5	82	41.3	0	0	---	0.00	30.126 
01:05	46.2	46.2	46.2	83	41.3	0	0	---	0.00	30.126 
01:10	46.1	46.1	46.1	83	41.2	0	0	---	0.00	30.126 
01:15	46.0	46.0	46.0	83	41.1	0	0	---	0.00	30.125 
01:20	45.8	45.8	45.8	84	41.2	0	0	---	0.00	30.125 
01:25	45.7	45.7	45.7	84	41.1	0	0	---	0.00	30.125 
01:30	45.5	45.5	45.5	84	41.0	0	0	---	0.00	30.126 
01:35	45.4	45.4	45.4	84	40.9	0	0	---	0.00	30.126 
01:40	45.1	45.1	45.1	84	40.6	0	0	---	0.00	30.126 
01:45	44.9	44.9	44.9	84	40.4	0	0	---	0.00	30.128 
01:50	44.6	44.6	44.6	85	40.4	0	0	---	0.00	30.128 
01:55	44.5	44.5	44.5	85	40.3	0	0	---	0.00	30.128 
02:00	44.2	44.2	44.2	86	40.3	0	0	---	0.00	30.131 
02:05	44.1	44.1	44.1	87	40.5	0	0	---	0.00	30.131 
02:10	43.9	43.9	43.9	87	40.3	0	0	---	0.00	30.131 
02:15	43.8	43.8	43.8	87	40.2	0	0	---	0.00	30.136 
02:20	43.6	43.6	43.6	87	40.0	0	0	---	0.00	30.136 
02:25	43.5	43.5	43.5	87	39.9	0	0	---	0.00	30.136 
02:30	43.3	43.3	43.3	87	39.7	0	0	---	0.00	30.133 
02:35	43.2	43.2	43.2	88	39.9	0	0	---	0.00	30.133 
02:40	43.1	43.1	43.1	88	39.8	0	0	---	0.00	30.133 
02:45	42.9	42.9	42.9	88	39.6	0	0	---	0.00	30.135 
02:50	42.8	42.8	42.8	88	39.5	0	0	---	0.00	30.135 
02:55	42.8	42.8	42.8	88	39.5	0	0	---	0.00	30.135 
03:00	42.6	42.6	42.6	88	39.3	0	0	---	0.00	30.134 
03:05	42.5	42.5	42.5	89	39.5	0	0	---	0.00	30.134 
03:10	42.3	42.3	42.3	89	39.3	0	0	---	0.00	30.134 
03:15	42.2	42.2	42.2	89	39.2	0	0	---	0.00	30.135 
03:20	42.1	42.1	42.1	89	39.1	0	0	---	0.00	30.135 
03:25	42.1	42.1	42.1	89	39.1	0	0	---	0.00	30.135 
03:30	41.9	41.9	41.9	90	39.2	0	0	---	0.00	30.141 
03:35	41.8	41.8	41.8	90	39.1	0	0	---	0.00	30.141 
03:40	41.8	41.8	41.8	90	39.1	0	0	---	0.00	30.141 
03:45	41.6	41.6	41.6	90	38.9	0	0	---	0.00	30.141 
03:50	41.6	41.6	41.6	90	38.9	0	0	---	0.00	30.141 
03:55	41.5	41.5	41.5	90	38.8	0	0	---	0.00	30.141 
04:00	41.3	41.3	41.3	91	38.9	0	0	---	0.00	30.142 
04:05	41.3	41.3	41.3	91	38.9	0	0	---	0.00	30.142 
04:10	41.2	41.2	41.2	91	38.8	0	0	---	0.00	30.142 
04:15	41.2	41.2	41.2	91	38.8	0	0	---	0.00	30.145 
04:20	41.2	41.2	41.2	91	38.8	0	0	---	0.00	30.145 
04:25	41.1	41.1	41.1	91	38.7	0	0	---	0.00	30.145 
04:30	41.1	41.1	41.1	91	38.7	0	0	---	0.00	30.146 
04:35	40.9	40.9	40.9	91	38.5	0	0	---	0.00	30.146 
04:40	40.9	40.9	40.9	92	38.8	0	0	---	0.00	30.146 
04:45	40.8	40.8	40.8	92	38.7	0	0	---	0.00	30.146 
04:50	40.8	40.8	40.8	92	38.7	0	0	---	0.00	30.146 
04:55	40.6	40.6	40.6	92	38.5	0	0	---	0.00	30.146 
05:00	40.6	40.6	40.6	92	38.5	0	0	---	0.00	30.144 
05:05	40.5	40.5	40.5	92	38.4	0	0	---	0.00	30.144 
05:10	40.3	40.3	40.3	92	38.2	0	0	---	0.00	30.144 
05:15	40.3	40.3	40.3	92	38.2	0	0	---	0.00	30.148 
05:20	40.2	40.2	40.2	92	38.1	0	0	---	0.00	30.148 
05:25	40.1	40.1	40.1	92	38.0	0	0	---	0.00	30.148 
05:30	39.9	39.9	39.9	92	37.8	0	0	---	0.00	30.151 
05:35	39.9	39.9	39.9	92	37.8	0	0	---	0.00	30.151 
05:40	39.9	39.9	39.9	92	37.8	0	0	---	0.00	30.151 
05:45	39.9	39.9	39.9	92	37.8	0	0	---	0.00	30.154 
05:50	39.9	39.9	39.9	92	37.8	0	0	---	0.00	30.154 
05:55	39.8	39.8	39.8	92	37.7	0	0	---	0.00	30.154 
06:00	39.8	39.8	39.8	92	37.7	0	0	---	0.00	30.156 
06:05	39.6	39.6	39.6	92	37.5	0	0	---	0.00	30.156 
06:10	39.6	39.6	39.6	92	37.5	0	0	---	0.00	30.156 
06:15	39.6	39.6	39.6	92	37.5	0	0	---	0.00	30.157 
06:20	39.5	39.5	39.5	92	37.4	0	0	---	0.00	30.157 
06:25	39.5	39.5	39.5	92	37.4	0	0	---	0.00	30.157 
06:30	39.5	39.5	39.5	92	37.4	0	0	---	0.00	30.153 
06:35	39.5	39.5	39.5	93	37.6	0	0	---	0.00	30.153 
06:40	39.5	39.5	39.5	93	37.6	0	0	---	0.00	30.153 
06:45	39.3	39.3	39.3	93	37.4	0	0	---	0.00	30.163 
06:50	39.3	39.3	39.3	93	37.4	0	0	---	0.00	30.163 
06:55	39.3	39.3	39.3	93	37.4	0	0	---	0.00	30.163 
07:00	39.3	39.3	39.3	93	37.4	0	0	---	0.00	30.167 
07:05	39.3	39.3	39.3	93	37.4	0	0	---	0.00	30.167 
07:10	39.2	39.2	39.2	93	37.3	0	0	---	0.00	30.167 
07:15	39.1	39.1	39.1	93	37.2	0	0	---	0.00	30.172 
07:20	39.1	39.1	39.1	93	37.2	0	0	---	0.00	30.172 
07:25	38.9	38.9	38.9	93	37.1	0	0	---	0.00	30.172 
07:30	39.1	39.1	39.1	93	37.2	0	0	---	0.00	30.171 
07:35	39.1	39.1	39.1	93	37.2	0	0	---	0.00	30.171 
07:40	39.2	39.2	39.2	93	37.3	0	0	---	0.00	30.171 
07:45	39.3	39.3	39.3	93	37.4	0	0	---	0.00	30.180 
07:50	39.5	39.5	39.5	94	37.9	0	0	---	0.00	30.180 
07:55	39.8	39.8	39.8	94	38.2	0	0	---	0.00	30.180 
08:00	40.1	40.1	40.1	94	38.5	0	0	---	0.00	30.189 
08:05	40.5	40.5	40.5	94	38.9	0	0	---	0.00	30.189 
08:10	40.9	40.9	40.9	94	39.3	0	0	---	0.00	30.189 
08:15	41.5	41.5	41.5	94	39.9	0	0	---	0.00	30.195 
08:20	41.9	41.9	41.9	94	40.3	0	0	---	0.00	30.195 
08:25	42.3	42.3	42.3	95	41.0	0	0	---	0.00	30.195 
08:30	42.8	42.8	42.8	94	41.2	0	0	---	0.00	30.192 
08:35	43.1	43.1	43.1	94	41.5	0	0	---	0.00	30.192 
08:40	43.5	43.5	43.5	94	41.9	0	0	---	0.00	30.192 
08:45	43.8	43.8	43.8	94	42.2	0	0	---	0.00	30.194 
08:50	44.2	44.2	44.2	94	42.6	0	0	---	0.00	30.194 
08:55	44.8	44.8	44.8	94	43.2	0	0	---	0.00	30.194 
09:00	45.2	45.2	45.2	94	43.6	0	0	---	0.00	30.193 
09:05	45.5	45.5	45.5	94	43.9	0	0	---	0.00	30.193 
09:10	46.0	46.0	46.0	93	44.1	0	0	---	0.00	30.193 
09:15	46.4	46.4	46.4	93	44.5	0	0	---	0.00	30.193 
09:20	46.7	46.7	46.7	92	44.5	0	0	---	0.00	30.193 
09:25	47.0	47.0	47.0	91	44.5	0	1	112	0.00	30.193 
09:30	47.6	47.6	47.6	89	44.5	0	0	---	0.00	30.196 
09:35	48.2	48.2	48.2	88	44.8	0	0	---	0.00	30.196 
09:40	48.6	48.6	48.6	85	44.3	0	0	---	0.00	30.196 
09:45	49.2	49.2	49.2	81	43.6	0	0	---	0.00	30.196 
09:50	49.8	49.8	49.8	78	43.2	0	1	112	0.00	30.196 
09:55	50.2	50.2	50.2	75	42.6	0	2	112	0.00	30.196 
10:00	51.0	51.0	51.0	73	42.7	0	2	112	0.00	30.195 
10:05	51.9	51.9	51.9	70	42.4	0	1	112	0.00	30.195 
10:10	53.1	53.1	53.1	65	41.6	0	2	112	0.00	30.195 
10:15	54.5	54.5	54.5	63	42.2	0	0	---	0.00	30.195 
10:20	55.6	55.6	55.6	60	41.9	0	0	---	0.00	30.195 
10:25	56.5	56.5	56.5	57	41.5	0	1	112	0.00	30.195 
10:30	57.5	57.5	57.5	52	40.0	0	2	112	0.00	30.202 
10:35	58.1	58.1	58.1	53	41.1	0	1	112	0.00	30.202 
10:40	58.1	58.1	58.1	55	42.0	1	2	112	0.00	30.202 
10:45	58.6	58.6	58.6	50	40.0	0	3	112	0.00	30.199 
10:50	59.0	59.0	59.0	50	40.4	0	2	112	0.00	30.199 
10:55	59.0	59.0	59.0	47	38.8	1	4	112	0.00	30.199 
11:00	59.5	59.5	59.5	47	39.3	1	3	112	0.00	30.199 
11:05	59.8	59.8	59.8	47	39.5	1	4	112	0.00	30.199 
11:10	59.9	59.9	59.9	46	39.1	0	3	112	0.00	30.199 
11:15	59.9	59.9	59.9	47	39.6	0	2	112	0.00	30.194 
11:20	60.4	60.4	60.4	45	39.0	1	3	112	0.00	30.194 
11:25	61.0	61.0	61.0	49	41.7	0	2	112	0.00	30.194 
11:30	60.9	60.9	60.9	44	38.8	0	2	112	0.00	30.190 
11:35	61.3	61.3	61.3	46	40.3	0	2	112	0.00	30.190 
11:40	62.1	62.1	62.1	42	38.7	1	3	112	0.00	30.190 
11:45	62.4	62.4	62.4	41	38.4	1	3	112	0.00	30.192 
11:50	62.4	62.4	62.4	37	35.8	1	3	112	0.00	30.192 
11:55	62.6	62.6	62.6	39	37.3	1	4	112	0.00	30.192 
12:00	62.4	62.4	62.4	40	37.8	1	5	112	0.00	30.189 
12:05	62.6	62.6	62.6	40	37.9	1	3	90	0.00	30.189 
12:10	62.1	62.1	62.1	41	38.1	1	5	90	0.00	30.189 
12:15	62.3	62.3	62.3	40	37.7	0	2	90	0.00	30.188 
12:20	62.9	62.9	62.9	37	36.2	1	4	90	0.00	30.188 
12:25	62.9	62.9	62.9	39	37.6	0	2	90	0.00	30.188 
12:30	63.5	63.5	63.5	36	36.1	1	4	112	0.00	30.184 
12:35	63.7	63.7	63.7	36	36.2	1	5	112	0.00	30.184 
12:40	63.7	63.7	63.7	34	34.8	2	4	112	0.00	30.184 
12:45	63.9	63.9	63.9	36	36.4	0	2	90	0.00	30.181 
12:50	64.0	64.0	64.0	31	32.8	1	3	90	0.00	30.181 
12:55	64.3	64.3	64.3	37	37.5	0	2	90	0.00	30.181 
13:00	64.2	64.2	64.2	34	35.2	1	4	68	0.00	30.178 
13:05	64.5	64.5	64.5	33	34.8	1	3	112	0.00	30.178 
13:10	64.7	64.7	64.7	35	36.4	1	3	112	0.00	30.178 
13:15	65.5	65.5	65.5	36	37.8	0	1	112	0.00	30.174 
13:20	66.0	66.0	66.0	35	37.6	0	2	315	0.00	30.174 
13:25	66.1	66.1	66.1	31	34.6	0	2	315	0.00	30.174 
13:30	66.1	66.1	66.1	35	37.6	1	4	0	0.00	30.169 
13:35	65.8	65.8	65.8	33	35.9	2	4	90	0.00	30.169 
13:40	65.2	65.2	65.2	35	36.9	1	4	90	0.00	30.169 
13:45	65.3	65.3	65.3	32	34.7	0	1	90	0.00	30.170 
13:50	66.0	66.0	66.0	31	34.5	1	3	90	0.00	30.170 
13:55	66.3	66.3	66.3	30	33.9	0	3	90	0.00	30.170 
14:00	66.0	66.0	66.0	30	33.7	1	3	90	0.00	30.157 
14:05	65.8	65.8	65.8	31	34.3	0	2	0	0.00	30.157 
14:10	66.3	66.3	66.3	29	33.1	1	3	45	0.00	30.157 
14:15	66.3	66.3	66.3	28	32.2	1	3	45	0.00	30.157 
14:20	66.3	66.3	66.3	28	32.2	2	4	45	0.00	30.157 
14:25	66.3	66.3	66.3	28	32.2	1	4	68	0.00	30.157 
14:30	66.1	66.1	66.1	31	34.6	1	2	45	0.00	30.147 
14:35	66.4	66.4	66.4	30	34.0	1	2	45	0.00	30.147 
14:40	66.9	66.9	66.9	31	35.3	1	2	45	0.00	30.147 
14:45	67.4	67.4	67.4	28	33.2	0	1	45	0.00	30.142 
14:50	67.8	67.8	67.8	29	34.4	1	2	45	0.00	30.142 
14:55	67.4	67.4	67.4	29	34.0	1	4	315	0.00	30.142 
15:00	67.8	67.8	67.8	31	36.1	0	2	292	0.00	30.134 
15:05	68.4	68.4	68.4	30	35.7	0	2	292	0.00	30.134 
15:10	68.9	68.9	68.9	29	35.3	1	3	68	0.00	30.134 
15:15	68.9	68.9	68.9	29	35.3	1	3	315	0.00	30.129 
15:20	69.1	69.1	69.1	28	34.6	0	2	315	0.00	30.129 
15:25	69.3	69.3	69.3	27	33.9	0	2	315	0.00	30.129 
15:30	69.4	69.4	69.4	29	35.8	0	1	315	0.00	30.121 
15:35	69.4	69.4	69.4	27	34.0	0	2	315	0.00	30.121 
15:40	68.9	68.9	68.9	28	34.4	1	3	315	0.00	30.121 
15:45	68.8	68.8	68.8	30	36.1	1	4	315	0.00	30.120 
15:50	68.6	68.6	68.6	27	33.3	0	2	315	0.00	30.120 
15:55	68.6	68.6	68.6	28	34.2	0	2	315	0.00	30.120 
16:00	68.6	68.6	68.6	28	34.2	0	3	315	0.00	30.109 
16:05	68.4	68.4	68.4	27	33.1	0	2	315	0.00	30.109 
16:10	68.6	68.6	68.6	27	33.3	0	3	45	0.00	30.109 
16:15	68.9	68.9	68.9	26	32.6	0	1	45	0.00	30.107 
16:20	68.9	68.9	68.9	25	31.6	0	2	45	0.00	30.107 
16:25	68.6	68.6	68.6	26	32.3	1	4	68	0.00	30.107 
16:30	68.4	68.4	68.4	27	33.1	1	3	68	0.00	30.105 
16:35	68.1	68.1	68.1	27	32.9	0	2	45	0.00	30.105 
16:40	68.3	68.3	68.3	27	33.0	0	2	45	0.00	30.105 
16:45	68.4	68.4	68.4	27	33.1	0	2	338	0.00	30.107 
16:50	68.3	68.3	68.3	27	33.0	0	1	338	0.00	30.107 
16:55	68.3	68.3	68.3	27	33.0	0	2	338	0.00	30.107 
17:00	68.3	68.3	68.3	26	32.1	1	2	0	0.00	30.103 
17:05	68.3	68.3	68.3	27	33.0	0	1	90	0.00	30.103 
17:10	68.3	68.3	68.3	25	31.1	1	3	90	0.00	30.103 
17:15	68.1	68.1	68.1	25	30.9	1	3	90	0.00	30.101 
17:20	68.1	68.1	68.1	27	32.9	0	2	90	0.00	30.101 
17:25	68.3	68.3	68.3	27	33.0	0	2	90	0.00	30.101 
17:30	68.6	68.6	68.6	28	34.2	0	1	90	0.00	30.104 
17:35	68.8	68.8	68.8	27	33.5	1	2	0	0.00	30.104 
17:40	68.9	68.9	68.9	27	33.5	0	1	0	0.00	30.104 
17:45	69.1	69.1	69.1	26	32.8	0	2	0	0.00	30.099 
17:50	69.1	69.1	69.1	27	33.7	0	1	0	0.00	30.099 
17:55	69.1	69.1	69.1	27	33.7	0	1	0	0.00	30.099 
18:00	69.3	69.3	69.3	26	32.9	0	1	0	0.00	30.098 
18:05	69.3	69.3	69.3	27	33.9	1	2	0	0.00	30.098 
18:10	68.9	68.9	68.9	28	34.4	1	4	90	0.00	30.098 
18:15	68.6	68.6	68.6	27	33.3	0	2	90	0.00	30.099 
18:20	68.6	68.6	68.6	26	32.3	0	1	90	0.00	30.099 
18:25	68.4	68.4	68.4	28	34.0	0	1	90	0.00	30.099 
18:30	68.3	68.3	68.3	27	33.0	0	1	90	0.00	30.100 
18:35	68.1	68.1	68.1	27	32.9	0	0	---	0.00	30.100 
18:40	67.9	67.9	67.9	27	32.7	0	0	---	0.00	30.100 
18:45	67.8	67.8	67.8	27	32.6	0	0	---	0.00	30.101 
18:50	67.6	67.6	67.6	27	32.4	0	0	---	0.00	30.101 
18:55	67.4	67.4	67.4	27	32.3	0	1	90	0.00	30.101 
19:00	67.4	67.4	67.4	28	33.2	0	0	---	0.00	30.103 
19:05	67.1	67.1	67.1	27	32.0	0	0	---	0.00	30.103 
19:10	66.9	66.9	66.9	28	32.7	0	0	---	0.00	30.103 
19:15	66.4	66.4	66.4	28	32.3	0	0	---	0.00	30.108 
19:20	66.0	66.0	66.0	33	36.1	0	0	---	0.00	30.108 
19:25	65.5	65.5	65.5	33	35.6	0	0	---	0.00	30.108 
19:30	65.0	65.0	65.0	35	36.7	0	0	---	0.00	30.108 
19:35	64.5	64.5	64.5	36	36.9	0	0	---	0.00	30.108 
19:40	64.2	64.2	64.2	37	37.4	0	0	---	0.00	30.108 
19:45	63.7	63.7	63.7	38	37.6	0	0	---	0.00	30.108 
19:50	63.2	63.2	63.2	41	39.1	0	0	---	0.00	30.108 
19:55	62.7	62.7	62.7	42	39.3	0	0	---	0.00	30.108 
20:00	62.3	62.3	62.3	43	39.5	0	0	---	0.00	30.105 
20:05	61.6	61.6	61.6	44	39.5	0	0	---	0.00	30.105 
20:10	61.2	61.2	61.2	44	39.1	0	0	---	0.00	30.105 
20:15	60.5	60.5	60.5	46	39.6	0	0	---	0.00	30.102 
20:20	59.8	59.8	59.8	47	39.5	0	0	---	0.00	30.102 
20:25	59.2	59.2	59.2	48	39.5	0	0	---	0.00	30.102 
20:30	58.7	58.7	58.7	49	39.6	0	0	---	0.00	30.108 
20:35	58.3	58.3	58.3	52	40.8	0	0	---	0.00	30.108 
20:40	57.8	57.8	57.8	52	40.3	0	0	---	0.00	30.108 
20:45	57.2	57.2	57.2	53	40.2	0	0	---	0.00	30.114 
20:50	56.9	56.9	56.9	54	40.4	0	0	---	0.00	30.114 
20:55	56.5	56.5	56.5	56	41.0	0	0	---	0.00	30.114 
21:00	56.2	56.2	56.2	57	41.2	0	0	---	0.00	30.117 
21:05	55.7	55.7	55.7	57	40.7	0	0	---	0.00	30.117 
21:10	55.3	55.3	55.3	59	41.2	0	0	---	0.00	30.117 
21:15	55.0	55.0	55.0	59	40.9	0	0	---	0.00	30.111 
21:20	54.7	54.7	54.7	60	41.1	0	0	---	0.00	30.111 
21:25	54.4	54.4	54.4	62	41.7	0	0	---	0.00	30.111 
21:30	54.1	54.1	54.1	63	41.8	0	0	---	0.00	30.114 
21:35	53.9	53.9	53.9	65	42.4	0	0	---	0.00	30.114 
21:40	53.6	53.6	53.6	65	42.1	0	0	---	0.00	30.114 
21:45	53.5	53.5	53.5	67	42.8	0	0	---	0.00	30.113 
21:50	53.2	53.2	53.2	67	42.5	0	0	---	0.00	30.113 
21:55	53.1	53.1	53.1	68	42.8	0	0	---	0.00	30.113 
22:00	52.8	52.8	52.8	68	42.5	0	0	---	0.00	30.112 
22:05	52.6	52.6	52.6	68	42.3	0	0	---	0.00	30.112 
22:10	52.5	52.5	52.5	69	42.6	0	0	---	0.00	30.112 
22:15	52.2	52.2	52.2	69	42.3	0	0	---	0.00	30.104 
22:20	51.9	51.9	51.9	70	42.4	0	0	---	0.00	30.104 
22:25	51.7	51.7	51.7	70	42.2	0	0	---	0.00	30.104 
22:30	51.6	51.6	51.6	71	42.5	0	0	---	0.00	30.098 
22:35	51.4	51.4	51.4	73	43.0	0	0	---	0.00	30.098 
22:40	51.1	51.1	51.1	74	43.1	0	0	---	0.00	30.098 
22:45	51.0	51.0	51.0	74	43.0	0	0	---	0.00	30.099 
22:50	50.7	50.7	50.7	75	43.1	0	0	---	0.00	30.099 
22:55	50.5	50.5	50.5	76	43.2	0	0	---	0.00	30.099 
23:00	50.4	50.4	50.4	77	43.5	0	0	---	0.00	30.104 
23:05	50.2	50.2	50.2	77	43.3	0	0	---	0.00	30.104 
23:10	50.2	50.2	50.2	77	43.3	0	0	---	0.00	30.104 
23:15	50.1	50.1	50.1	78	43.5	0	0	---	0.00	30.099 
23:20	49.9	49.9	49.9	78	43.3	0	0	---	0.00	30.099 
23:25	49.8	49.8	49.8	79	43.6	0	0	---	0.00	30.099 
23:30	49.6	49.6	49.6	79	43.4	0	0	---	0.00	30.092 
23:35	49.5	49.5	49.5	79	43.3	0	0	---	0.00	30.092 
23:40	49.2	49.2	49.2	79	43.0	0	0	---	0.00	30.092 
23:45	49.1	49.1	49.1	80	43.2	0	0	---	0.00	30.092 
23:50	48.9	48.9	48.9	80	43.0	0	0	---	0.00	30.092 
23:55	48.8	48.8	48.8	81	43.2	0	0	---	0.00	30.092 

CoCoRaHS
IN-AL-39
A2 Web Hosting
Creative Commons License
GoDaddy
search engine by freefind advanced

loaded 2018-11-19 11:44:21 • last modified 2010-11-18 10:43:29
Privacy PolicyDisclaimer
• wx.awcolley.com is powered by PmWiki v.2002016 •
• all content (unless otherwise noted) © 2018 A W Colley